createdAt,value
2023-02-11T00:02:05.465Z,70.47
2023-02-11T00:04:41.812Z,70.46
2023-02-11T00:07:17.989Z,70.50
2023-02-11T00:09:54.814Z,70.63
2023-02-11T00:12:31.607Z,70.71
2023-02-11T00:15:09.938Z,70.81
2023-02-11T00:17:46.287Z,70.94
2023-02-11T00:20:22.748Z,71.00
2023-02-11T00:22:58.959Z,71.07
2023-02-11T00:25:37.482Z,71.10
2023-02-11T00:28:14.661Z,71.18
2023-02-11T00:30:59.491Z,71.19
2023-02-11T00:33:35.827Z,71.23
2023-02-11T00:36:17.089Z,71.29
2023-02-11T00:38:58.126Z,71.43
2023-02-11T00:41:34.646Z,71.59
2023-02-11T00:44:11.228Z,71.66
2023-02-11T00:46:47.583Z,71.70
2023-02-11T00:49:23.841Z,71.82
2023-02-11T00:52:00.106Z,71.93
2023-02-11T00:54:36.500Z,72.04
2023-02-11T00:57:12.922Z,72.10
2023-02-11T00:59:49.201Z,72.10
2023-02-11T01:02:25.468Z,72.20
2023-02-11T01:05:02.554Z,72.20
2023-02-11T01:07:38.920Z,72.35
2023-02-11T01:10:15.838Z,72.51
2023-02-11T01:12:52.122Z,72.62
2023-02-11T01:15:28.821Z,72.80
2023-02-11T01:18:07.327Z,72.96
2023-02-11T01:20:43.726Z,73.09
2023-02-11T01:23:20.024Z,73.21
2023-02-11T01:25:56.344Z,73.32
2023-02-11T01:28:35.019Z,73.38
2023-02-11T01:31:11.783Z,73.52
2023-02-11T01:33:49.331Z,73.62
2023-02-11T01:36:25.703Z,73.85
2023-02-11T01:39:02.026Z,73.95
2023-02-11T01:41:38.638Z,74.16
2023-02-11T01:44:38.382Z,74.33
2023-02-11T01:47:14.702Z,74.50
2023-02-11T01:49:57.615Z,74.63
2023-02-11T01:52:40.396Z,74.71
2023-02-11T01:55:36.107Z,74.86
2023-02-11T01:58:12.543Z,75.02
2023-02-11T02:00:50.837Z,75.27
2023-02-11T02:03:29.171Z,75.46
2023-02-11T02:06:13.714Z,75.42
2023-02-11T02:08:58.242Z,75.71
2023-02-11T02:11:34.682Z,75.76
2023-02-11T02:14:12.191Z,75.82
2023-02-11T02:16:49.535Z,75.88
2023-02-11T02:20:26.422Z,75.90
2023-02-11T02:23:42.578Z,76.02
2023-02-11T02:26:57.743Z,75.90
2023-02-11T02:30:27.466Z,75.91
2023-02-11T02:33:25.459Z,75.80
2023-02-11T02:36:19.730Z,75.85
2023-02-11T02:39:02.973Z,75.81
2023-02-11T02:41:42.822Z,75.78
2023-02-11T02:44:19.428Z,75.74
2023-02-11T02:46:55.836Z,75.60
2023-02-11T02:49:32.140Z,75.42
2023-02-11T02:52:30.206Z,75.40
2023-02-11T02:55:39.842Z,75.27
2023-02-11T02:58:51.363Z,75.20
2023-02-11T03:01:42.831Z,75.20
2023-02-11T03:04:30.811Z,75.14
2023-02-11T03:07:19.416Z,75.16
2023-02-11T03:10:04.949Z,75.14
2023-02-11T03:12:43.225Z,75.10
2023-02-11T03:15:23.211Z,75.00
2023-02-11T03:18:04.792Z,74.84
2023-02-11T03:20:45.726Z,74.64
2023-02-11T03:23:29.828Z,74.50
2023-02-11T03:26:16.508Z,74.32
2023-02-11T03:29:05.314Z,74.12
2023-02-11T03:31:54.246Z,73.97
2023-02-11T03:34:41.120Z,73.83
2023-02-11T03:37:25.252Z,73.80
2023-02-11T03:40:09.445Z,73.83
2023-02-11T03:42:54.536Z,73.87
2023-02-11T03:45:32.831Z,73.76
2023-02-11T03:48:16.982Z,73.70
2023-02-11T03:50:55.249Z,73.66
2023-02-11T03:53:31.766Z,73.71
2023-02-11T03:56:18.107Z,73.70
2023-02-11T03:58:55.039Z,73.63
2023-02-11T04:01:31.507Z,73.53
2023-02-11T04:04:08.804Z,73.47
2023-02-11T04:06:45.509Z,73.43
2023-02-11T04:09:21.974Z,73.25
2023-02-11T04:11:58.156Z,73.11
2023-02-11T04:14:34.606Z,72.96
2023-02-11T04:17:11.681Z,72.95
2023-02-11T04:19:48.052Z,72.92
2023-02-11T04:22:24.306Z,72.90
2023-02-11T04:25:00.574Z,72.85
2023-02-11T04:27:37.391Z,72.79
2023-02-11T04:30:16.182Z,72.85
2023-02-11T04:32:54.275Z,72.99
2023-02-11T04:35:30.558Z,72.92
2023-02-11T04:38:06.753Z,72.88
2023-02-11T04:40:43.763Z,72.81
2023-02-11T04:43:20.074Z,72.80
2023-02-11T04:45:59.728Z,72.73
2023-02-11T04:48:36.057Z,72.68
2023-02-11T04:51:12.747Z,72.67
2023-02-11T04:53:49.111Z,72.71
2023-02-11T04:56:25.577Z,72.73
2023-02-11T04:59:01.843Z,72.88
2023-02-11T05:01:38.247Z,72.85
2023-02-11T05:04:14.819Z,72.83
2023-02-11T05:06:51.203Z,72.86
2023-02-11T05:09:27.576Z,72.75
2023-02-11T05:12:03.862Z,72.76
2023-02-11T05:14:40.455Z,72.76
2023-02-11T05:17:16.799Z,72.74
2023-02-11T05:19:53.171Z,72.77
2023-02-11T05:22:29.452Z,72.73
2023-02-11T05:25:06.063Z,72.54
2023-02-11T05:27:42.303Z,72.56
2023-02-11T05:30:20.006Z,72.48
2023-02-11T05:32:56.840Z,72.55
2023-02-11T05:35:33.618Z,72.44
2023-02-11T05:38:09.837Z,72.43
2023-02-11T05:40:46.816Z,72.35
2023-02-11T05:43:23.426Z,72.34
2023-02-11T05:46:00.113Z,72.44
2023-02-11T05:48:36.423Z,72.50
2023-02-11T05:51:13.115Z,72.58
2023-02-11T05:53:49.607Z,72.52
2023-02-11T05:56:25.837Z,72.46
2023-02-11T05:59:02.996Z,72.39
2023-02-11T06:01:39.510Z,72.28
2023-02-11T06:04:15.896Z,72.20
2023-02-11T06:06:52.369Z,72.17
2023-02-11T06:09:29.006Z,72.13
2023-02-11T06:12:05.615Z,72.12
2023-02-11T06:14:43.544Z,72.20
2023-02-11T06:17:20.009Z,72.32
2023-02-11T06:19:56.333Z,72.40
2023-02-11T06:22:34.855Z,72.38
2023-02-11T06:25:12.951Z,72.32
2023-02-11T06:27:49.330Z,72.27
2023-02-11T06:30:25.695Z,72.33
2023-02-11T06:33:02.164Z,72.36
2023-02-11T06:35:41.043Z,72.35
2023-02-11T06:38:17.333Z,72.30
2023-02-11T06:40:56.685Z,72.27
2023-02-11T06:43:33.049Z,72.12
2023-02-11T06:46:10.582Z,72.04
2023-02-11T06:48:47.109Z,72.00
2023-02-11T06:51:23.646Z,71.90
2023-02-11T06:54:00.316Z,71.82
2023-02-11T06:56:37.131Z,71.69
2023-02-11T06:59:17.561Z,71.60
2023-02-11T07:01:53.977Z,71.56
2023-02-11T07:04:30.340Z,71.50
2023-02-11T07:07:07.250Z,71.47
2023-02-11T07:09:43.678Z,71.21
2023-02-11T07:12:19.924Z,70.91
2023-02-11T07:14:57.116Z,70.78
2023-02-11T07:17:33.381Z,70.52
2023-02-11T07:20:14.741Z,70.27
2023-02-11T07:22:50.975Z,69.86
2023-02-11T07:25:27.650Z,69.71
2023-02-11T07:28:04.425Z,69.53
2023-02-11T07:30:40.748Z,69.15
2023-02-11T07:33:17.105Z,68.90
2023-02-11T07:35:53.477Z,68.71
2023-02-11T07:38:30.152Z,68.78
2023-02-11T07:41:10.808Z,68.63
2023-02-11T07:43:48.356Z,68.42
2023-02-11T07:46:28.934Z,68.25
2023-02-11T07:49:05.735Z,68.20
2023-02-11T07:51:42.429Z,68.02
2023-02-11T07:54:19.056Z,67.75
2023-02-11T07:56:55.243Z,67.25
2023-02-11T07:59:31.524Z,66.93
2023-02-11T08:02:07.824Z,66.70
2023-02-11T08:04:47.052Z,66.30
2023-02-11T08:07:23.802Z,66.01
2023-02-11T08:10:00.046Z,65.67
2023-02-11T08:12:36.255Z,64.61
2023-02-11T08:15:14.108Z,64.21
2023-02-11T08:17:50.334Z,64.10
2023-02-11T08:20:26.643Z,63.47
2023-02-11T08:23:03.374Z,63.04
2023-02-11T08:25:40.211Z,63.09
2023-02-11T08:28:16.596Z,62.62
2023-02-11T08:30:53.278Z,62.18
2023-02-11T08:33:30.589Z,62.08
2023-02-11T08:36:14.284Z,61.38
2023-02-11T08:38:51.119Z,61.25
2023-02-11T08:41:27.689Z,60.93
2023-02-11T08:44:05.097Z,59.93
2023-02-11T08:46:41.535Z,59.31
2023-02-11T08:49:18.691Z,59.34
2023-02-11T08:51:56.406Z,58.55
2023-02-11T08:54:33.162Z,58.71
2023-02-11T08:57:10.022Z,58.93
2023-02-11T08:59:46.345Z,58.50
2023-02-11T09:02:22.854Z,57.87
2023-02-11T09:04:59.297Z,57.62
2023-02-11T09:07:35.950Z,56.95
2023-02-11T09:10:13.064Z,56.29
2023-02-11T09:12:52.568Z,56.04
2023-02-11T09:15:30.065Z,55.52
2023-02-11T09:18:08.091Z,55.80
2023-02-11T09:20:44.539Z,54.95
2023-02-11T09:23:21.180Z,54.67
2023-02-11T09:25:57.883Z,54.21
2023-02-11T09:28:34.262Z,54.37
2023-02-11T09:31:16.586Z,53.52
2023-02-11T09:33:57.462Z,53.45
2023-02-11T09:36:38.334Z,53.62
2023-02-11T09:39:20.108Z,53.94
2023-02-11T09:42:45.214Z,54.11
2023-02-11T09:45:27.612Z,53.75
2023-02-11T09:48:14.528Z,54.33
2023-02-11T09:50:56.856Z,54.62
2023-02-11T09:53:39.071Z,55.36
2023-02-11T09:56:19.120Z,55.26
2023-02-11T09:58:55.896Z,55.22
2023-02-11T10:01:41.929Z,55.52
2023-02-11T10:04:43.072Z,55.39
2023-02-11T10:07:32.543Z,54.93
2023-02-11T10:10:27.060Z,55.33
2023-02-11T10:13:32.766Z,55.12
2023-02-11T10:16:30.282Z,54.82
2023-02-11T10:19:31.989Z,54.97
2023-02-11T10:22:20.546Z,55.28
2023-02-11T10:25:00.981Z,55.51
2023-02-11T10:27:39.863Z,55.80
2023-02-11T10:30:33.307Z,55.95
2023-02-11T10:33:21.449Z,55.89
2023-02-11T10:35:58.061Z,56.13
2023-02-11T10:38:36.514Z,56.03
2023-02-11T10:41:19.132Z,56.21
2023-02-11T10:43:55.566Z,56.43
2023-02-11T10:46:40.416Z,56.82
2023-02-11T10:49:39.445Z,56.12
2023-02-11T10:52:30.686Z,56.32
2023-02-11T10:55:20.950Z,56.75
2023-02-11T10:58:02.848Z,56.46
2023-02-11T11:00:42.248Z,56.14
2023-02-11T11:03:27.229Z,55.67
2023-02-11T11:06:07.883Z,55.64
2023-02-11T11:08:51.180Z,55.26
2023-02-11T11:11:29.040Z,54.94
2023-02-11T11:14:06.139Z,54.07
2023-02-11T11:16:54.914Z,54.34
2023-02-11T11:19:31.757Z,54.45
2023-02-11T11:22:20.786Z,54.70
2023-02-11T11:24:57.560Z,55.06
2023-02-11T11:27:34.081Z,54.99
2023-02-11T11:30:20.887Z,55.44
2023-02-11T11:32:57.668Z,55.08
2023-02-11T11:35:35.739Z,55.31
2023-02-11T11:38:17.964Z,55.33
2023-02-11T11:41:24.889Z,54.62
2023-02-11T11:44:24.189Z,54.53
2023-02-11T11:47:26.323Z,54.54
2023-02-11T11:50:26.393Z,54.66
2023-02-11T11:53:16.739Z,54.88
2023-02-11T11:56:00.829Z,55.29
2023-02-11T11:58:38.321Z,55.69
2023-02-11T12:01:35.147Z,55.98
2023-02-11T12:04:57.236Z,56.25
2023-02-11T12:07:58.362Z,56.53
2023-02-11T12:10:59.681Z,56.74
2023-02-11T12:14:04.787Z,56.68
2023-02-11T12:16:57.254Z,57.32
2023-02-11T12:20:06.501Z,57.32
2023-02-11T12:23:04.250Z,57.68
2023-02-11T12:25:48.669Z,57.96
2023-02-11T12:28:44.790Z,58.12
2023-02-11T12:31:44.313Z,58.34
2023-02-11T12:35:00.207Z,58.71
2023-02-11T12:37:59.706Z,59.11
2023-02-11T12:40:47.500Z,59.36
2023-02-11T12:43:37.068Z,59.66
2023-02-11T12:46:44.821Z,60.11
2023-02-11T12:50:01.201Z,60.39
2023-02-11T12:53:07.035Z,60.78
2023-02-11T12:55:50.028Z,60.94
2023-02-11T12:58:44.642Z,60.98
2023-02-11T13:01:31.128Z,61.37
2023-02-11T13:04:19.265Z,61.54
2023-02-11T13:07:05.566Z,61.67
2023-02-11T13:09:51.539Z,62.03
2023-02-11T13:12:48.615Z,62.35
2023-02-11T13:15:26.052Z,62.69
2023-02-11T13:18:19.284Z,63.18
2023-02-11T13:21:09.922Z,63.74
2023-02-11T13:23:58.068Z,64.14
2023-02-11T13:26:46.552Z,64.89
2023-02-11T13:29:37.657Z,65.27
2023-02-11T13:32:16.799Z,65.88
2023-02-11T13:35:03.229Z,66.62
2023-02-11T13:37:48.336Z,67.11
2023-02-11T13:40:33.624Z,67.60
2023-02-11T13:43:24.791Z,68.13
2023-02-11T13:46:06.623Z,68.27
2023-02-11T13:48:50.165Z,68.49
2023-02-11T13:51:44.109Z,68.48
2023-02-11T13:54:34.576Z,68.62
2023-02-11T13:57:42.151Z,68.60
2023-02-11T14:00:53.445Z,68.65
2023-02-11T14:03:55.423Z,68.86
2023-02-11T14:07:02.262Z,69.17
2023-02-11T14:09:44.304Z,69.28
2023-02-11T14:12:37.133Z,69.38
2023-02-11T14:15:42.879Z,69.39
2023-02-11T14:19:03.840Z,69.41
2023-02-11T14:21:45.476Z,69.38
2023-02-11T14:24:57.917Z,69.38
2023-02-11T14:27:55.416Z,69.52
2023-02-11T14:30:56.157Z,69.65
2023-02-11T14:34:07.046Z,69.84
2023-02-11T14:37:09.397Z,70.20
2023-02-11T14:40:09.473Z,70.38
2023-02-11T14:42:46.453Z,70.75
2023-02-11T14:45:31.197Z,71.16
2023-02-11T14:48:17.940Z,71.51
2023-02-11T14:51:03.385Z,71.76
2023-02-11T14:53:45.217Z,71.80
2023-02-11T14:56:26.626Z,71.97
2023-02-11T14:59:03.979Z,71.90
2023-02-11T15:01:50.960Z,71.85
2023-02-11T15:04:33.537Z,72.05
2023-02-11T15:07:15.495Z,72.12
2023-02-11T15:09:55.071Z,72.47
2023-02-11T15:12:32.999Z,72.39
2023-02-11T15:15:16.205Z,72.52
2023-02-11T15:17:53.652Z,73.07
2023-02-11T15:20:36.015Z,73.20
2023-02-11T15:23:23.778Z,73.67
2023-02-11T15:26:04.443Z,73.98
2023-02-11T15:28:52.208Z,74.27
2023-02-11T15:31:34.555Z,74.88
2023-02-11T15:34:15.279Z,74.98
2023-02-11T15:36:52.116Z,75.46
2023-02-11T15:39:41.273Z,76.01
2023-02-11T15:42:43.937Z,76.46
2023-02-11T15:45:35.832Z,76.94
2023-02-11T15:48:21.099Z,77.15
2023-02-11T15:51:02.818Z,77.38
2023-02-11T15:53:41.192Z,77.81
2023-02-11T15:56:25.382Z,77.97
2023-02-11T15:59:17.062Z,78.25
2023-02-11T16:01:54.711Z,78.43
2023-02-11T16:04:32.549Z,78.95
2023-02-11T16:07:36.064Z,79.19
2023-02-11T16:10:31.122Z,79.44
2023-02-11T16:13:23.997Z,79.35
2023-02-11T16:16:05.075Z,79.63
2023-02-11T16:19:03.450Z,80.06
2023-02-11T16:21:47.141Z,80.15
2023-02-11T16:24:29.555Z,80.35
2023-02-11T16:27:18.333Z,80.27
2023-02-11T16:29:55.530Z,80.31
2023-02-11T16:32:33.119Z,80.46
2023-02-11T16:35:16.618Z,80.56
2023-02-11T16:37:53.152Z,80.66
2023-02-11T16:40:29.729Z,81.00
2023-02-11T16:43:06.446Z,80.96
2023-02-11T16:45:44.449Z,80.92
2023-02-11T16:48:23.374Z,81.45
2023-02-11T16:50:59.958Z,81.85
2023-02-11T16:53:36.324Z,81.55
2023-02-11T16:56:19.452Z,81.66
2023-02-11T16:58:56.307Z,81.65
2023-02-11T17:01:33.185Z,82.14
2023-02-11T17:04:12.324Z,82.20
2023-02-11T17:06:49.345Z,81.99
2023-02-11T17:09:31.123Z,81.94
2023-02-11T17:12:06.763Z,81.91
2023-02-11T17:14:43.208Z,81.93
2023-02-11T17:17:19.467Z,82.06
2023-02-11T17:19:55.706Z,82.24
2023-02-11T17:22:32.091Z,82.09
2023-02-11T17:25:09.462Z,81.99
2023-02-11T17:27:46.459Z,81.94
2023-02-11T17:30:24.307Z,81.89
2023-02-11T17:33:00.515Z,81.69
2023-02-11T17:35:40.063Z,81.68
2023-02-11T17:38:16.941Z,81.91
2023-02-11T17:41:01.893Z,81.96
2023-02-11T17:43:38.125Z,81.90
2023-02-11T17:46:15.209Z,82.13
2023-02-11T17:48:52.876Z,82.11
2023-02-11T17:51:32.682Z,82.26
2023-02-11T17:54:12.097Z,82.45
2023-02-11T17:56:55.122Z,82.46
2023-02-11T17:59:35.559Z,82.51
2023-02-11T18:02:13.928Z,82.81
2023-02-11T18:04:50.848Z,82.80
2023-02-11T18:07:27.609Z,82.58
2023-02-11T18:10:06.428Z,82.62
2023-02-11T18:12:42.803Z,82.96
2023-02-11T18:15:19.570Z,82.83
2023-02-11T18:17:56.159Z,82.83
2023-02-11T18:20:32.585Z,83.11
2023-02-11T18:23:09.560Z,83.13
2023-02-11T18:25:48.701Z,83.26
2023-02-11T18:28:25.292Z,83.26
2023-02-11T18:31:04.965Z,83.16
2023-02-11T18:33:43.223Z,83.02
2023-02-11T18:36:20.650Z,83.02
2023-02-11T18:38:58.395Z,82.91
2023-02-11T18:41:34.726Z,82.95
2023-02-11T18:44:11.815Z,83.15
2023-02-11T18:46:49.226Z,83.30
2023-02-11T18:49:25.795Z,83.17
2023-02-11T18:52:02.096Z,83.25
2023-02-11T18:54:38.638Z,83.23
2023-02-11T18:57:15.361Z,83.19
2023-02-11T18:59:51.910Z,83.10
2023-02-11T19:02:29.387Z,83.12
2023-02-11T19:05:07.069Z,83.24
2023-02-11T19:07:43.640Z,83.26
2023-02-11T19:10:20.600Z,83.32
2023-02-11T19:12:59.885Z,83.25
2023-02-11T19:15:36.357Z,83.26
2023-02-11T19:18:13.459Z,83.27
2023-02-11T19:20:49.870Z,83.25
2023-02-11T19:23:26.230Z,83.26
2023-02-11T19:26:04.649Z,83.30
2023-02-11T19:28:40.964Z,83.34
2023-02-11T19:31:17.821Z,83.45
2023-02-11T19:33:54.357Z,83.38
2023-02-11T19:36:31.143Z,83.43
2023-02-11T19:39:09.804Z,83.37
2023-02-11T19:41:46.342Z,83.42
2023-02-11T19:44:22.698Z,83.53
2023-02-11T19:47:00.280Z,83.53
2023-02-11T19:49:36.857Z,83.63
2023-02-11T19:52:16.474Z,83.83
2023-02-11T19:54:54.405Z,83.73
2023-02-11T19:57:30.837Z,83.71
2023-02-11T20:00:11.193Z,83.71
2023-02-11T20:02:50.846Z,83.78
2023-02-11T20:05:32.445Z,83.84
2023-02-11T20:08:11.863Z,83.86
2023-02-11T20:10:48.559Z,83.88
2023-02-11T20:13:24.959Z,83.87
2023-02-11T20:16:07.288Z,83.87
2023-02-11T20:18:44.768Z,83.86
2023-02-11T20:21:25.153Z,83.89
2023-02-11T20:24:02.351Z,83.92
2023-02-11T20:26:41.664Z,83.85
2023-02-11T20:29:19.493Z,83.95
2023-02-11T20:31:56.368Z,83.91
2023-02-11T20:34:34.070Z,84.02
2023-02-11T20:37:10.510Z,84.03
2023-02-11T20:39:48.770Z,84.05
2023-02-11T20:42:26.046Z,84.11
2023-02-11T20:45:04.277Z,84.18
2023-02-11T20:47:42.463Z,84.13
2023-02-11T20:50:19.341Z,84.20
2023-02-11T20:52:55.919Z,84.15
2023-02-11T20:55:33.042Z,84.18
2023-02-11T20:58:09.735Z,84.16
2023-02-11T21:00:46.226Z,84.16
2023-02-11T21:03:22.982Z,84.16
2023-02-11T21:06:04.382Z,84.08
2023-02-11T21:08:41.363Z,84.10
2023-02-11T21:11:18.334Z,84.07
2023-02-11T21:13:54.911Z,84.18
2023-02-11T21:16:31.559Z,84.12
2023-02-11T21:19:08.772Z,84.06
2023-02-11T21:21:45.946Z,84.07
2023-02-11T21:24:23.825Z,84.11
2023-02-11T21:27:00.327Z,84.16
2023-02-11T21:29:52.637Z,84.19
2023-02-11T21:32:30.442Z,84.24
2023-02-11T21:35:08.465Z,84.24
2023-02-11T21:37:45.208Z,84.33
2023-02-11T21:40:27.465Z,84.32
2023-02-11T21:43:03.759Z,84.35
2023-02-11T21:45:44.903Z,84.37
2023-02-11T21:48:23.860Z,84.45
2023-02-11T21:51:01.945Z,84.49
2023-02-11T21:53:38.627Z,84.50
2023-02-11T21:56:18.795Z,84.50
2023-02-11T21:59:00.266Z,84.63
2023-02-11T22:01:38.627Z,84.70
2023-02-11T22:04:15.636Z,84.72
2023-02-11T22:06:51.957Z,84.70
2023-02-11T22:09:28.273Z,84.75
2023-02-11T22:12:05.212Z,84.72
2023-02-11T22:14:41.880Z,84.72
2023-02-11T22:17:18.456Z,84.76
2023-02-11T22:19:56.868Z,84.86
2023-02-11T22:22:33.249Z,84.84
2023-02-11T22:25:11.107Z,84.82
2023-02-11T22:27:47.408Z,84.85
2023-02-11T22:30:24.672Z,84.82
2023-02-11T22:33:00.892Z,84.89
2023-02-11T22:35:37.529Z,84.85
2023-02-11T22:38:13.758Z,84.82
2023-02-11T22:40:50.257Z,84.86
2023-02-11T22:43:27.016Z,84.89
2023-02-11T22:46:07.672Z,84.95
2023-02-11T22:48:44.154Z,84.91
2023-02-11T22:51:24.219Z,84.96
2023-02-11T22:54:03.997Z,84.93
2023-02-11T22:56:40.620Z,85.10
2023-02-11T22:59:19.750Z,85.07
2023-02-11T23:01:55.975Z,85.03
2023-02-11T23:04:32.375Z,85.06
2023-02-11T23:07:09.943Z,85.15
2023-02-11T23:09:47.307Z,85.24
2023-02-11T23:12:23.553Z,85.26
2023-02-11T23:14:59.885Z,85.26
2023-02-11T23:17:36.522Z,85.21
2023-02-11T23:20:15.671Z,85.21
2023-02-11T23:22:52.363Z,85.21
2023-02-11T23:25:28.924Z,85.19
2023-02-11T23:28:05.684Z,85.25
2023-02-11T23:30:42.635Z,85.19
2023-02-11T23:33:19.055Z,85.12
2023-02-11T23:35:55.792Z,85.15
2023-02-11T23:38:32.608Z,85.27
2023-02-11T23:41:09.477Z,85.26
2023-02-11T23:43:45.876Z,85.30
2023-02-11T23:46:23.314Z,85.33
2023-02-11T23:49:00.211Z,85.30
2023-02-11T23:51:36.592Z,85.37
2023-02-11T23:54:16.068Z,85.44
2023-02-11T23:56:52.699Z,85.54
2023-02-11T23:59:29.166Z,85.63
